Time;durP1;ratioP1;P1;durP2;ratioP2;P2;SDS_P1;SDS_P2;PMS_P1;PMS_P2;Temp;Humidity;BMP_temperature;BMP_pressure;BME280_temperature;BME280_humidity;BME280_pressure;Samples;Min_cycle;Max_cycle;Signal;HPM_P1;HPM_P2
2023/08/29 00:01:35;;;;;;;;;;;;;;;;;;4990338;28;19917;-94
2023/08/29 00:04:01;;;;;;;;;;;;;;;;;;4988704;28;20362;-96
2023/08/29 00:06:27;;;;;;;;;;;;;;;;;;4989224;28;19967;-95
2023/08/29 00:08:53;;;;;;;;;;;;;;;;;;4981228;28;19910;-93
2023/08/29 00:11:19;;;;;;;;;;;;;;;;;;4986415;28;19920;-94
2023/08/29 00:13:45;;;;;;;;;;;;;;;;;;4982552;28;20385;-93
2023/08/29 00:16:16;;;;;;;;;;;;;;;;;;4987701;28;19917;-96
2023/08/29 00:18:41;;;;;;;;;;;;;;;;;;4992189;28;19966;-93
2023/08/29 00:21:07;;;;;;;;;;;;;;;;;;4979348;28;19917;-94
2023/08/29 00:23:33;;;;;;;;;;;;;;;;;;4986835;28;19959;-93
2023/08/29 00:25:59;;;;;;;;;;;;;;;;;;4994644;28;20349;-93
2023/08/29 00:28:25;;;;;;;;;;;;;;;;;;4987131;28;19968;-90
2023/08/29 00:30:54;;;;;;;;;;;;;;;;;;4986495;28;20572;-90
2023/08/29 00:33:20;;;;;;;;;;;;;;;;;;4982048;28;19964;-91
2023/08/29 00:35:46;;;;;;;;;;;;;;;;;;4980533;28;19976;-90
2023/08/29 00:38:12;;;;;;;;;;;;;;;;;;4985065;28;19920;-90
2023/08/29 00:40:38;;;;;;;;;;;;;;;;;;4985311;28;19916;-90
2023/08/29 00:43:03;;;;;;;;;;;;;;;;;;4983950;28;20619;-91
2023/08/29 00:45:29;;;;;;;;;;;;;;;;;;4989200;28;19917;-90
2023/08/29 00:47:56;;;;;;;;;;;;;;;;;;5001362;28;19967;-90
2023/08/29 00:50:22;;;;;;;;;;;;;;;;;;4979878;28;19956;-91
2023/08/29 00:52:48;;;;;;;;;;;;;;;;;;4985031;28;19924;-92
2023/08/29 00:55:14;;;;;;;;;;;;;;;;;;4984441;28;19913;-90
2023/08/29 00:57:39;;;;;;;;;;;;;;;;;;4982239;28;20329;-90
2023/08/29 01:00:05;;;;;;;;;;;;;;;;;;4985880;28;19941;-90
2023/08/29 01:02:31;;;;;;;;;;;;;;;;;;5000457;28;20012;-90
2023/08/29 01:04:57;;;;;;;;;;;;;;;;;;4985162;28;19917;-90
2023/08/29 01:07:24;;;;;;;;;;;;;;;;;;4997600;28;19924;-91
2023/08/29 01:09:50;;;;;;;;;;;;;;;;;;4997238;28;19910;-90
2023/08/29 01:12:16;;;;;;;;;;;;;;;;;;4980953;28;19921;-90
2023/08/29 01:14:42;;;;;;;;;;;;;;;;;;4983813;28;19952;-89
2023/08/29 01:17:09;;;;;;;;;;;;;;;;;;4984033;28;20285;-91
2023/08/29 01:19:35;;;;;;;;;;;;;;;;;;4982081;28;19995;-90
2023/08/29 01:22:01;;;;;;;;;;;;;;;;;;4986110;28;19928;-90
2023/08/29 01:24:27;;;;;;;;;;;;;;;;;;4986457;28;19917;-89
2023/08/29 01:26:53;;;;;;;;;;;;;;;;;;4983717;28;19936;-90
2023/08/29 01:29:19;;;;;;;;;;;;;;;;;;4994691;28;22137;-90
2023/08/29 01:31:45;;;;;;;;;;;;;;;;;;4983687;28;19909;-90
2023/08/29 01:34:11;;;;;;;;;;;;;;;;;;4980371;28;19959;-90
2023/08/29 01:36:37;;;;;;;;;;;;;;;;;;4979688;28;19956;-90
2023/08/29 01:39:03;;;;;;;;;;;;;;;;;;4983740;28;20254;-91
2023/08/29 01:41:29;;;;;;;;;;;;;;;;;;4986462;28;20361;-90
2023/08/29 01:43:55;;;;;;;;;;;;;;;;;;4986051;28;19936;-91
2023/08/29 01:46:21;;;;;;;;;;;;;;;;;;4998230;28;19916;-90
2023/08/29 01:48:47;;;;;;;;;;;;;;;;;;4988122;28;19909;-90
2023/08/29 01:51:13;;;;;;;;;;;;;;;;;;4981656;28;19956;-90
2023/08/29 01:53:39;;;;;;;;;;;;;;;;;;4985748;28;19916;-90
2023/08/29 01:56:05;;;;;;;;;;;;;;;;;;4984069;28;19914;-90
2023/08/29 01:58:31;;;;;;;;;;;;;;;;;;4985393;28;19910;-89
2023/08/29 02:00:57;;;;;;;;;;;;;;;;;;4988724;28;19924;-89
2023/08/29 02:03:23;;;;;;;;;;;;;;;;;;4985952;28;20277;-91
2023/08/29 02:05:49;;;;;;;;;;;;;;;;;;4983201;28;20000;-90
2023/08/29 02:08:15;;;;;;;;;;;;;;;;;;4987306;28;20028;-91
2023/08/29 02:10:41;;;;;;;;;;;;;;;;;;4985247;28;19963;-90
2023/08/29 02:13:07;;;;;;;;;;;;;;;;;;5002388;28;19925;-90
2023/08/29 02:15:32;;;;;;;;;;;;;;;;;;4998648;28;20321;-91
2023/08/29 02:17:58;;;;;;;;;;;;;;;;;;4986251;28;19913;-90
2023/08/29 02:20:24;;;;;;;;;;;;;;;;;;4984833;28;20380;-90
2023/08/29 02:22:50;;;;;;;;;;;;;;;;;;4990314;28;20012;-89
2023/08/29 02:25:16;;;;;;;;;;;;;;;;;;4984051;28;19913;-90
2023/08/29 02:27:42;;;;;;;;;;;;;;;;;;5000262;28;20517;-90
2023/08/29 02:30:08;;;;;;;;;;;;;;;;;;4984454;28;19950;-90
2023/08/29 02:32:34;;;;;;;;;;;;;;;;;;4987090;28;19976;-91
2023/08/29 02:35:00;;;;;;;;;;;;;;;;;;4982776;28;19991;-89
2023/08/29 02:37:26;;;;;;;;;;;;;;;;;;4986368;28;19909;-90
2023/08/29 02:39:52;;;;;;;;;;;;;;;;;;4992267;28;19936;-90
2023/08/29 02:42:18;;;;;;;;;;;;;;;;;;4984188;28;19917;-90
2023/08/29 02:44:47;;;;;;;;;;;;;;;;;;4989223;28;19909;-92
2023/08/29 02:47:13;;;;;;;;;;;;;;;;;;4983183;28;19921;-92
2023/08/29 02:49:39;;;;;;;;;;;;;;;;;;4993959;28;20376;-89
2023/08/29 02:52:05;;;;;;;;;;;;;;;;;;4993023;28;19914;-92
2023/08/29 02:54:31;;;;;;;;;;;;;;;;;;4989111;28;20535;-94
2023/08/29 02:56:57;;;;;;;;;;;;;;;;;;4992583;28;19912;-91
2023/08/29 02:59:23;;;;;;;;;;;;;;;;;;4995735;28;19921;-95
2023/08/29 03:01:49;;;;;;;;;;;;;;;;;;4990172;28;20424;-93
2023/08/29 03:04:15;;;;;;;;;;;;;;;;;;4998122;28;19917;-95
2023/08/29 03:06:44;;;;;;;;;;;;;;;;;;4995906;28;19909;-93
2023/08/29 03:09:10;;;;;;;;;;;;;;;;;;4992539;28;19952;-93
2023/08/29 03:11:36;;;;;;;;;;;;;;;;;;4995691;28;19913;-92
2023/08/29 03:14:03;;;;;;;;;;;;;;;;;;4992412;28;19922;-92
2023/08/29 03:16:29;;;;;;;;;;;;;;;;;;4994612;28;19913;-93
2023/08/29 03:18:55;;;;;;;;;;;;;;;;;;4991601;28;19917;-93
2023/08/29 03:21:21;;;;;;;;;;;;;;;;;;5000766;28;20431;-93
2023/08/29 03:23:47;;;;;;;;;;;;;;;;;;4996323;28;19913;-93
2023/08/29 03:26:13;;;;;;;;;;;;;;;;;;4996029;28;19909;-92
2023/08/29 03:28:39;;;;;;;;;;;;;;;;;;4991192;28;20376;-91
2023/08/29 03:31:05;;;;;;;;;;;;;;;;;;4993544;28;19913;-93
2023/08/29 03:33:31;;;;;;;;;;;;;;;;;;4989121;28;20010;-93
2023/08/29 03:35:57;;;;;;;;;;;;;;;;;;4993576;28;19941;-93
2023/08/29 03:38:23;;;;;;;;;;;;;;;;;;4996393;28;20003;-93
2023/08/29 03:40:49;;;;;;;;;;;;;;;;;;4995783;28;19913;-92
2023/08/29 03:43:15;;;;;;;;;;;;;;;;;;4994119;28;20346;-93
2023/08/29 03:45:42;;;;;;;;;;;;;;;;;;4991340;28;19909;-93
2023/08/29 03:48:08;;;;;;;;;;;;;;;;;;4995179;28;20935;-92
2023/08/29 03:50:34;;;;;;;;;;;;;;;;;;4995391;28;19913;-93
2023/08/29 03:53:00;;;;;;;;;;;;;;;;;;4996313;28;20071;-94
2023/08/29 03:55:26;;;;;;;;;;;;;;;;;;4993273;28;20345;-92
2023/08/29 03:57:53;;;;;;;;;;;;;;;;;;5009331;28;19967;-89
2023/08/29 04:00:19;;;;;;;;;;;;;;;;;;4987330;28;19926;-91
2023/08/29 04:02:45;;;;;;;;;;;;;;;;;;4991084;28;20024;-88
2023/08/29 04:05:12;;;;;;;;;;;;;;;;;;4986333;28;19916;-90
2023/08/29 04:07:38;;;;;;;;;;;;;;;;;;4988322;28;19963;-90
2023/08/29 04:10:04;;;;;;;;;;;;;;;;;;4989436;28;19913;-91
2023/08/29 04:12:30;;;;;;;;;;;;;;;;;;4984390;28;20583;-90
2023/08/29 04:14:55;;;;;;;;;;;;;;;;;;4989384;28;19909;-89
2023/08/29 04:17:21;;;;;;;;;;;;;;;;;;5002367;28;20482;-90
2023/08/29 04:19:58;;;;;;;;;;;;;;;;;;4981338;28;20405;-92
2023/08/29 04:22:24;;;;;;;;;;;;;;;;;;4991867;28;19928;-91
2023/08/29 04:24:50;;;;;;;;;;;;;;;;;;5001538;28;19910;-91
2023/08/29 04:27:15;;;;;;;;;;;;;;;;;;4985355;28;19915;-90
2023/08/29 04:29:41;;;;;;;;;;;;;;;;;;4994778;28;19909;-89
2023/08/29 04:32:07;;;;;;;;;;;;;;;;;;4982477;28;19963;-89
2023/08/29 04:34:33;;;;;;;;;;;;;;;;;;4987495;28;20321;-90
2023/08/29 04:36:59;;;;;;;;;;;;;;;;;;4987127;28;19913;-91
2023/08/29 04:39:25;;;;;;;;;;;;;;;;;;4981377;28;19914;-89
2023/08/29 04:41:51;;;;;;;;;;;;;;;;;;4984684;28;19913;-90
2023/08/29 04:44:17;;;;;;;;;;;;;;;;;;4987379;28;19913;-90
2023/08/29 04:46:43;;;;;;;;;;;;;;;;;;4985583;28;19952;-91
2023/08/29 04:49:09;;;;;;;;;;;;;;;;;;4987991;28;20003;-90
2023/08/29 04:51:43;;;;;;;;;;;;;;;;;;4982607;28;20008;-90
2023/08/29 04:54:09;;;;;;;;;;;;;;;;;;5002024;28;19988;-90
2023/08/29 04:56:35;;;;;;;;;;;;;;;;;;4988313;28;20326;-91
2023/08/29 04:59:01;;;;;;;;;;;;;;;;;;4986654;28;19917;-90
2023/08/29 05:01:27;;;;;;;;;;;;;;;;;;5003649;28;19921;-89
2023/08/29 05:03:53;;;;;;;;;;;;;;;;;;4988231;28;19943;-88
2023/08/29 05:06:19;;;;;;;;;;;;;;;;;;5003562;28;19909;-87
2023/08/29 05:08:44;;;;;;;;;;;;;;;;;;4983214;28;19924;-88
2023/08/29 05:11:10;;;;;;;;;;;;;;;;;;4984217;28;20641;-88
2023/08/29 05:13:53;;;;;;;;;;;;;;;;;;4978608;28;19932;-88
2023/08/29 05:16:19;;;;;;;;;;;;;;;;;;4963943;28;20358;-88
2023/08/29 05:18:45;;;;;;;;;;;;;;;;;;4980003;28;20270;-88
2023/08/29 05:21:11;;;;;;;;;;;;;;;;;;4968352;28;19913;-87
2023/08/29 05:23:37;;;;;;;;;;;;;;;;;;4972039;28;19939;-89
2023/08/29 05:26:04;;;;;;;;;;;;;;;;;;4963888;28;19909;-88
2023/08/29 05:28:30;;;;;;;;;;;;;;;;;;4968527;28;20384;-89
2023/08/29 05:30:56;;;;;;;;;;;;;;;;;;4981973;28;20008;-88
2023/08/29 05:33:22;;;;;;;;;;;;;;;;;;4969630;28;19925;-89
2023/08/29 05:35:48;;;;;;;;;;;;;;;;;;4973782;28;20116;-89
2023/08/29 05:38:13;;;;;;;;;;;;;;;;;;4985053;28;19920;-89
2023/08/29 05:40:39;;;;;;;;;;;;;;;;;;4979562;28;20297;-88
2023/08/29 05:43:05;;;;;;;;;;;;;;;;;;4971914;28;19913;-88
2023/08/29 05:45:31;;;;;;;;;;;;;;;;;;4969757;28;19914;-89
2023/08/29 05:47:57;;;;;;;;;;;;;;;;;;4972226;28;19917;-89
2023/08/29 05:50:23;;;;;;;;;;;;;;;;;;4966714;28;19910;-89
2023/08/29 05:52:49;;;;;;;;;;;;;;;;;;4962615;28;19910;-92
2023/08/29 05:55:15;;;;;;;;;;;;;;;;;;4976752;28;19917;-90
2023/08/29 05:57:41;;;;;;;;;;;;;;;;;;4979571;28;19960;-90
2023/08/29 06:00:07;;;;;;;;;;;;;;;;;;4966243;28;19913;-90
2023/08/29 06:02:33;;;;;;;;;;;;;;;;;;4968475;28;19917;-90
2023/08/29 06:04:59;;;;;;;;;;;;;;;;;;4964796;28;19918;-90
2023/08/29 06:07:25;;;;;;;;;;;;;;;;;;4968346;28;19914;-90
2023/08/29 06:09:51;;;;;;;;;;;;;;;;;;4975213;28;19921;-91
2023/08/29 06:12:17;;;;;;;;;;;;;;;;;;4968196;28;20336;-89
2023/08/29 06:14:43;;;;;;;;;;;;;;;;;;4985356;28;20007;-91
2023/08/29 06:17:11;;;;;;;;;;;;;;;;;;4988680;28;19920;-92
2023/08/29 06:19:37;;;;;;;;;;;;;;;;;;4988427;28;19948;-92
2023/08/29 06:22:03;;;;;;;;;;;;;;;;;;4987330;28;19913;-93
2023/08/29 06:24:32;;;;;;;;;;;;;;;;;;4988879;28;20364;-93
2023/08/29 06:26:58;;;;;;;;;;;;;;;;;;4989690;28;19917;-93
2023/08/29 06:29:24;;;;;;;;;;;;;;;;;;4988915;28;19914;-94
2023/08/29 06:31:49;;;;;;;;;;;;;;;;;;4988875;28;20009;-92
2023/08/29 06:34:15;;;;;;;;;;;;;;;;;;4985472;28;19909;-93
2023/08/29 06:36:41;;;;;;;;;;;;;;;;;;4990467;28;19940;-92
2023/08/29 06:39:08;;;;;;;;;;;;;;;;;;4987066;28;19940;-92
2023/08/29 06:41:34;;;;;;;;;;;;;;;;;;4989263;28;20369;-93
2023/08/29 06:44:00;;;;;;;;;;;;;;;;;;4988654;28;19918;-93
2023/08/29 06:46:26;;;;;;;;;;;;;;;;;;4983222;28;19918;-94
2023/08/29 06:48:52;;;;;;;;;;;;;;;;;;4989617;28;19916;-93
2023/08/29 06:51:18;;;;;;;;;;;;;;;;;;4984167;28;20354;-93
2023/08/29 06:53:44;;;;;;;;;;;;;;;;;;4987959;28;19916;-93
2023/08/29 06:56:10;;;;;;;;;;;;;;;;;;4987899;28;19999;-93
2023/08/29 06:58:36;;;;;;;;;;;;;;;;;;4986786;28;19979;-93
2023/08/29 07:01:02;;;;;;;;;;;;;;;;;;4984950;28;19936;-93
2023/08/29 07:03:28;;;;;;;;;;;;;;;;;;4981393;28;19909;-93
2023/08/29 07:05:54;;;;;;;;;;;;;;;;;;4985933;28;19910;-93
2023/08/29 07:08:21;;;;;;;;;;;;;;;;;;4987104;28;20036;-93
2023/08/29 07:10:46;;;;;;;;;;;;;;;;;;4991724;28;19955;-94
2023/08/29 07:13:20;;;;;;;;;;;;;;;;;;4987299;28;19934;-93
2023/08/29 07:15:46;;;;;;;;;;;;;;;;;;4967364;28;19910;-94
2023/08/29 07:18:21;;;;;;;;;;;;;;;;;;4970818;28;19910;-93
2023/08/29 07:20:47;;;;;;;;;;;;;;;;;;4981224;28;20004;-93
2023/08/29 07:23:13;;;;;;;;;;;;;;;;;;4967096;28;20005;-94
2023/08/29 07:25:39;;;;;;;;;;;;;;;;;;4978961;28;20397;-94
2023/08/29 07:28:05;;;;;;;;;;;;;;;;;;4970117;28;20468;-93
2023/08/29 07:30:31;;;;;;;;;;;;;;;;;;4982404;28;19909;-94
2023/08/29 07:32:57;;;;;;;;;;;;;;;;;;4955393;28;19917;-94
2023/08/29 07:35:23;;;;;;;;;;;;;;;;;;4974918;28;19913;-94
2023/08/29 07:37:51;;;;;;;;;;;;;;;;;;4963026;28;20416;-93
2023/08/29 07:40:17;;;;;;;;;;;;;;;;;;4962397;28;19964;-93
2023/08/29 07:42:43;;;;;;;;;;;;;;;;;;4960988;28;19914;-94
2023/08/29 07:45:09;;;;;;;;;;;;;;;;;;4980623;28;19928;-94
2023/08/29 07:47:34;;;;;;;;;;;;;;;;;;4962193;28;19914;-93
2023/08/29 07:50:00;;;;;;;;;;;;;;;;;;4961849;28;20338;-93
2023/08/29 07:52:26;;;;;;;;;;;;;;;;;;4980427;28;19953;-93
2023/08/29 07:54:52;;;;;;;;;;;;;;;;;;4959412;28;19909;-92
2023/08/29 07:57:23;;;;;;;;;;;;;;;;;;4961555;28;20281;-93
2023/08/29 07:59:49;;;;;;;;;;;;;;;;;;4962279;28;20461;-92
2023/08/29 08:02:15;;;;;;;;;;;;;;;;;;4967797;28;19928;-94
2023/08/29 08:04:41;;;;;;;;;;;;;;;;;;4961072;28;20185;-93
2023/08/29 08:07:07;;;;;;;;;;;;;;;;;;4981339;28;19956;-93
2023/08/29 08:09:33;;;;;;;;;;;;;;;;;;4961577;28;19981;-91
2023/08/29 08:12:01;;;;;;;;;;;;;;;;;;4981256;28;20360;-91
2023/08/29 08:14:27;;;;;;;;;;;;;;;;;;4978131;28;19921;-91
2023/08/29 08:16:54;;;;;;;;;;;;;;;;;;4979499;28;19913;-92
2023/08/29 08:19:20;;;;;;;;;;;;;;;;;;4981674;28;19921;-90
2023/08/29 08:21:46;;;;;;;;;;;;;;;;;;4978339;28;19985;-91
2023/08/29 08:24:12;;;;;;;;;;;;;;;;;;4977065;28;19917;-91
2023/08/29 08:26:37;;;;;;;;;;;;;;;;;;4979748;28;20712;-90
2023/08/29 08:29:06;;;;;;;;;;;;;;;;;;4982399;28;19959;-91
2023/08/29 08:31:42;;;;;;;;;;;;;;;;;;4979277;28;20267;-91
2023/08/29 08:34:10;;;;;;;;;;;;;;;;;;4979661;28;19917;-91
2023/08/29 08:36:36;;;;;;;;;;;;;;;;;;4982429;28;19944;-92
2023/08/29 08:39:03;;;;;;;;;;;;;;;;;;4979282;28;19938;-93
2023/08/29 08:41:29;;;;;;;;;;;;;;;;;;4981774;28;19963;-92
2023/08/29 08:43:55;;;;;;;;;;;;;;;;;;4981448;28;20277;-93
2023/08/29 08:46:21;;;;;;;;;;;;;;;;;;4975278;28;19913;-95
2023/08/29 08:48:47;;;;;;;;;;;;;;;;;;4980819;28;19936;-94
2023/08/29 08:51:13;;;;;;;;;;;;;;;;;;4977332;28;19909;-94
2023/08/29 08:53:39;;;;;;;;;;;;;;;;;;4979926;28;19913;-94
2023/08/29 08:56:05;;;;;;;;;;;;;;;;;;4979538;28;19933;-93
2023/08/29 08:58:31;;;;;;;;;;;;;;;;;;4980995;28;19987;-92
2023/08/29 09:00:57;;;;;;;;;;;;;;;;;;4979600;28;19920;-95
2023/08/29 09:03:23;;;;;;;;;;;;;;;;;;4973799;28;19917;-95
2023/08/29 09:05:49;;;;;;;;;;;;;;;;;;4973563;28;19910;-93
2023/08/29 09:08:15;;;;;;;;;;;;;;;;;;4977374;28;19918;-93
2023/08/29 09:10:41;;;;;;;;;;;;;;;;;;4979065;28;19983;-94
2023/08/29 09:13:16;;;;;;;;;;;;;;;;;;4979439;28;20344;-92
2023/08/29 09:15:42;;;;;;;;;;;;;;;;;;4977104;28;19980;-94
2023/08/29 09:18:11;;;;;;;;;;;;;;;;;;4979291;28;19987;-95
2023/08/29 09:20:37;;;;;;;;;;;;;;;;;;4978638;28;19944;-95
2023/08/29 09:23:03;;;;;;;;;;;;;;;;;;4977943;28;20043;-92
2023/08/29 09:25:29;;;;;;;;;;;;;;;;;;4978945;28;19933;-94
2023/08/29 09:27:55;;;;;;;;;;;;;;;;;;4981904;28;19924;-94
2023/08/29 09:30:27;;;;;;;;;;;;;;;;;;4977759;28;19924;-94
2023/08/29 09:32:53;;;;;;;;;;;;;;;;;;4977514;28;19999;-95
2023/08/29 09:35:22;;;;;;;;;;;;;;;;;;4974982;28;19914;-92
2023/08/29 09:37:50;;;;;;;;;;;;;;;;;;4982196;28;19917;-93
2023/08/29 09:40:20;;;;;;;;;;;;;;;;;;4975505;28;19965;-94
2023/08/29 09:42:46;;;;;;;;;;;;;;;;;;4978491;28;19948;-95
2023/08/29 09:45:12;;;;;;;;;;;;;;;;;;4980753;28;19913;-94
2023/08/29 09:47:38;;;;;;;;;;;;;;;;;;4976503;28;19917;-91
2023/08/29 09:50:04;;;;;;;;;;;;;;;;;;4980129;28;19910;-91
2023/08/29 09:52:30;;;;;;;;;;;;;;;;;;4976978;28;19924;-90
2023/08/29 09:54:56;;;;;;;;;;;;;;;;;;4978179;28;19984;-89
2023/08/29 09:57:24;;;;;;;;;;;;;;;;;;4979362;28;19920;-92
2023/08/29 09:59:50;;;;;;;;;;;;;;;;;;4976685;28;19917;-90
2023/08/29 10:02:18;;;;;;;;;;;;;;;;;;4976766;28;20244;-92
2023/08/29 10:04:47;;;;;;;;;;;;;;;;;;4979756;28;19940;-92
2023/08/29 10:07:13;;;;;;;;;;;;;;;;;;4978361;28;20697;-90
2023/08/29 10:09:39;;;;;;;;;;;;;;;;;;4976448;28;20183;-90
2023/08/29 10:12:05;;;;;;;;;;;;;;;;;;4979975;28;19963;-91
2023/08/29 10:14:31;;;;;;;;;;;;;;;;;;4972925;28;19924;-90
2023/08/29 10:19:46;;;;;;;;;;;;;;;;;;4966624;28;19924;-90
2023/08/29 10:22:12;;;;;;;;;;;;;;;;;;4969637;28;20128;-91
2023/08/29 10:24:39;;;;;;;;;;;;;;;;;;4957902;28;19913;-90
2023/08/29 10:27:05;;;;;;;;;;;;;;;;;;4957217;28;19913;-92
2023/08/29 10:29:31;;;;;;;;;;;;;;;;;;4961037;28;19914;-91
2023/08/29 10:32:01;;;;;;;;;;;;;;;;;;4959076;28;19913;-91
2023/08/29 10:34:27;;;;;;;;;;;;;;;;;;4960468;28;19914;-91
2023/08/29 10:36:53;;;;;;;;;;;;;;;;;;4959389;28;20282;-92
2023/08/29 10:39:19;;;;;;;;;;;;;;;;;;4968746;28;19929;-92
2023/08/29 10:41:51;;;;;;;;;;;;;;;;;;4960520;28;19914;-92
2023/08/29 10:44:17;;;;;;;;;;;;;;;;;;4959559;28;19917;-91
2023/08/29 10:46:43;;;;;;;;;;;;;;;;;;4974622;28;20468;-91
2023/08/29 10:49:09;;;;;;;;;;;;;;;;;;4968966;28;20402;-92
2023/08/29 10:51:35;;;;;;;;;;;;;;;;;;4960785;28;19963;-91
2023/08/29 10:54:05;;;;;;;;;;;;;;;;;;4955659;28;19918;-92
2023/08/29 10:56:31;;;;;;;;;;;;;;;;;;4974423;28;19964;-91
2023/08/29 10:58:57;;;;;;;;;;;;;;;;;;4964160;28;20792;-90
2023/08/29 11:01:23;;;;;;;;;;;;;;;;;;4953111;28;19910;-91
2023/08/29 11:03:52;;;;;;;;;;;;;;;;;;4968530;28;20036;-92
2023/08/29 11:06:18;;;;;;;;;;;;;;;;;;4954908;28;19917;-91
2023/08/29 11:08:45;;;;;;;;;;;;;;;;;;4968226;28;19969;-91
2023/08/29 11:11:11;;;;;;;;;;;;;;;;;;4959100;28;19914;-89
2023/08/29 11:13:37;;;;;;;;;;;;;;;;;;4965865;28;19921;-90
2023/08/29 11:16:03;;;;;;;;;;;;;;;;;;4978933;28;19910;-92
2023/08/29 11:18:35;;;;;;;;;;;;;;;;;;4980107;28;19948;-90
2023/08/29 11:21:00;;;;;;;;;;;;;;;;;;4980080;28;19924;-92
2023/08/29 11:23:31;;;;;;;;;;;;;;;;;;4976123;28;19914;-91
2023/08/29 11:25:56;;;;;;;;;;;;;;;;;;4991497;28;19918;-91
2023/08/29 11:28:22;;;;;;;;;;;;;;;;;;4978408;28;19982;-92
2023/08/29 11:30:48;;;;;;;;;;;;;;;;;;4977986;28;19917;-91
2023/08/29 11:33:38;;;;;;;;;;;;;;;;;;4979257;28;19913;-93
2023/08/29 11:36:00;;;;;;;;;;;;;;;;;;4993153;28;20354;-91
2023/08/29 11:38:28;;;;;;;;;;;;;;;;;;4978474;28;20416;-92
2023/08/29 11:40:55;;;;;;;;;;;;;;;;;;4979704;28;20174;-90
2023/08/29 11:43:21;;;;;;;;;;;;;;;;;;4979711;28;19910;-93
2023/08/29 11:45:47;;;;;;;;;;;;;;;;;;4977193;28;20034;-91
2023/08/29 11:48:13;;;;;;;;;;;;;;;;;;4976877;28;20004;-90
2023/08/29 11:50:39;;;;;;;;;;;;;;;;;;4973905;28;19919;-90
2023/08/29 11:53:05;;;;;;;;;;;;;;;;;;4977255;28;20519;-91
2023/08/29 11:55:31;;;;;;;;;;;;;;;;;;4979055;28;19917;-90
2023/08/29 11:57:58;;;;;;;;;;;;;;;;;;4976431;28;20350;-89
2023/08/29 12:00:27;;;;;;;;;;;;;;;;;;4974192;28;19917;-91
2023/08/29 12:02:53;;;;;;;;;;;;;;;;;;4978256;28;20020;-91
2023/08/29 12:05:19;;;;;;;;;;;;;;;;;;4977938;28;19918;-92
2023/08/29 12:07:45;;;;;;;;;;;;;;;;;;4976481;28;19914;-90
2023/08/29 12:10:14;;;;;;;;;;;;;;;;;;4978247;28;19924;-92
2023/08/29 12:12:40;;;;;;;;;;;;;;;;;;4979394;28;19914;-91
2023/08/29 12:15:14;;;;;;;;;;;;;;;;;;4979439;28;19925;-92
2023/08/29 12:17:40;;;;;;;;;;;;;;;;;;4977680;28;19917;-90
2023/08/29 12:20:07;;;;;;;;;;;;;;;;;;4977665;28;19922;-90
2023/08/29 12:22:33;;;;;;;;;;;;;;;;;;4980921;28;20438;-90
2023/08/29 12:25:00;;;;;;;;;;;;;;;;;;4990664;28;19962;-92
2023/08/29 12:27:26;;;;;;;;;;;;;;;;;;4978790;28;20004;-90
2023/08/29 12:29:52;;;;;;;;;;;;;;;;;;4979135;28;19924;-91
2023/08/29 12:32:18;;;;;;;;;;;;;;;;;;4976657;28;19960;-92
2023/08/29 12:34:44;;;;;;;;;;;;;;;;;;4977850;28;19958;-90
2023/08/29 12:37:11;;;;;;;;;;;;;;;;;;4977650;28;20725;-90
2023/08/29 12:39:39;;;;;;;;;;;;;;;;;;4977762;28;20055;-91
2023/08/29 12:42:05;;;;;;;;;;;;;;;;;;4979116;28;20604;-92
2023/08/29 12:44:31;;;;;;;;;;;;;;;;;;4981737;28;20411;-90
2023/08/29 12:46:57;;;;;;;;;;;;;;;;;;4980353;28;19967;-93
2023/08/29 12:49:23;;;;;;;;;;;;;;;;;;4978991;28;20539;-91
2023/08/29 12:52:01;;;;;;;;;;;;;;;;;;4979477;28;19924;-91
2023/08/29 12:54:30;;;;;;;;;;;;;;;;;;4976568;28;20011;-90
2023/08/29 12:56:56;;;;;;;;;;;;;;;;;;4981083;28;19922;-91
2023/08/29 12:59:23;;;;;;;;;;;;;;;;;;4980060;28;20019;-90
2023/08/29 13:01:53;;;;;;;;;;;;;;;;;;4975038;28;20631;-91
2023/08/29 13:04:19;;;;;;;;;;;;;;;;;;4975003;28;23471;-89
2023/08/29 13:06:44;;;;;;;;;;;;;;;;;;4980124;28;19913;-91
2023/08/29 13:09:11;;;;;;;;;;;;;;;;;;4976060;28;19919;-91
2023/08/29 13:11:36;;;;;;;;;;;;;;;;;;4974825;28;20285;-92
2023/08/29 13:14:03;;;;;;;;;;;;;;;;;;4966031;28;19941;-90
2023/08/29 13:16:29;;;;;;;;;;;;;;;;;;4974486;28;19917;-90
2023/08/29 13:18:58;;;;;;;;;;;;;;;;;;4977819;28;19920;-91
2023/08/29 13:21:24;;;;;;;;;;;;;;;;;;4977492;28;20010;-91
2023/08/29 13:23:50;;;;;;;;;;;;;;;;;;4976749;28;20242;-90
2023/08/29 13:26:16;;;;;;;;;;;;;;;;;;4988262;28;19918;-89
2023/08/29 13:28:53;;;;;;;;;;;;;;;;;;4975819;28;19910;-90
2023/08/29 13:31:20;;;;;;;;;;;;;;;;;;4981702;28;20013;-90
2023/08/29 13:33:46;;;;;;;;;;;;;;;;;;4976233;28;20003;-90
2023/08/29 13:36:12;;;;;;;;;;;;;;;;;;4974373;28;19913;-90
2023/08/29 13:38:37;;;;;;;;;;;;;;;;;;4979068;28;19914;-92
2023/08/29 13:41:03;;;;;;;;;;;;;;;;;;4977063;28;19928;-91
2023/08/29 13:43:30;;;;;;;;;;;;;;;;;;4974961;28;19914;-90
2023/08/29 13:45:58;;;;;;;;;;;;;;;;;;4990576;28;20379;-90
2023/08/29 13:48:23;;;;;;;;;;;;;;;;;;4973648;28;19918;-91
2023/08/29 13:50:49;;;;;;;;;;;;;;;;;;4979354;28;19916;-90
2023/08/29 13:53:25;;;;;;;;;;;;;;;;;;4975421;28;19913;-90
2023/08/29 13:55:52;;;;;;;;;;;;;;;;;;4981473;28;20425;-90
2023/08/29 13:58:21;;;;;;;;;;;;;;;;;;4976792;28;20024;-90
2023/08/29 14:00:47;;;;;;;;;;;;;;;;;;4978561;28;19928;-90
2023/08/29 14:03:13;;;;;;;;;;;;;;;;;;4976438;28;19940;-91
2023/08/29 14:05:39;;;;;;;;;;;;;;;;;;4975863;28;19917;-90
2023/08/29 14:08:05;;;;;;;;;;;;;;;;;;4981420;28;19916;-91
2023/08/29 14:10:31;;;;;;;;;;;;;;;;;;4976475;28;20409;-89
2023/08/29 14:12:57;;;;;;;;;;;;;;;;;;4978666;28;19922;-90
2023/08/29 14:15:27;;;;;;;;;;;;;;;;;;4977360;28;19926;-90
2023/08/29 14:17:53;;;;;;;;;;;;;;;;;;4993540;28;19913;-90
2023/08/29 14:20:20;;;;;;;;;;;;;;;;;;4977049;28;21779;-90
2023/08/29 14:22:45;;;;;;;;;;;;;;;;;;4978222;28;20451;-90
2023/08/29 14:25:12;;;;;;;;;;;;;;;;;;4976985;28;19914;-90
2023/08/29 14:27:38;;;;;;;;;;;;;;;;;;4979564;28;20356;-93
2023/08/29 14:30:04;;;;;;;;;;;;;;;;;;4978968;28;19925;-93
2023/08/29 14:32:29;;;;;;;;;;;;;;;;;;4978762;28;19952;-93
2023/08/29 14:34:55;;;;;;;;;;;;;;;;;;4980263;28;19918;-93
2023/08/29 14:37:22;;;;;;;;;;;;;;;;;;4978360;28;19916;-95
2023/08/29 14:39:54;;;;;;;;;;;;;;;;;;4978194;28;23680;-94
2023/08/29 14:42:20;;;;;;;;;;;;;;;;;;4979691;28;19937;-94
2023/08/29 14:44:50;;;;;;;;;;;;;;;;;;4976654;28;19917;-94
2023/08/29 14:47:16;;;;;;;;;;;;;;;;;;4977624;28;20062;-91
2023/08/29 14:49:42;;;;;;;;;;;;;;;;;;4978617;28;19917;-92
2023/08/29 14:52:08;;;;;;;;;;;;;;;;;;4979584;28;20318;-91
2023/08/29 14:54:34;;;;;;;;;;;;;;;;;;4972837;28;19921;-91
2023/08/29 14:57:09;;;;;;;;;;;;;;;;;;4978138;28;19909;-91
2023/08/29 14:59:40;;;;;;;;;;;;;;;;;;4976866;28;20321;-91
2023/08/29 15:02:06;;;;;;;;;;;;;;;;;;4977908;28;19921;-92
2023/08/29 15:04:34;;;;;;;;;;;;;;;;;;4977888;28;19972;-92
2023/08/29 15:07:00;;;;;;;;;;;;;;;;;;4985384;28;20125;-91
2023/08/29 15:09:27;;;;;;;;;;;;;;;;;;4988369;28;19918;-91
2023/08/29 15:11:53;;;;;;;;;;;;;;;;;;4985077;28;20419;-91
2023/08/29 15:14:19;;;;;;;;;;;;;;;;;;4987271;28;20004;-91
2023/08/29 15:16:46;;;;;;;;;;;;;;;;;;4981307;28;20051;-91
2023/08/29 15:19:14;;;;;;;;;;;;;;;;;;4986373;28;19940;-91
2023/08/29 15:21:42;;;;;;;;;;;;;;;;;;4986674;28;20382;-91
2023/08/29 15:24:08;;;;;;;;;;;;;;;;;;4987752;28;19953;-92
2023/08/29 15:26:34;;;;;;;;;;;;;;;;;;4986132;28;20213;-92
2023/08/29 15:29:07;;;;;;;;;;;;;;;;;;4985293;28;19909;-92
2023/08/29 15:31:33;;;;;;;;;;;;;;;;;;4988366;28;20020;-91
2023/08/29 15:33:58;;;;;;;;;;;;;;;;;;4983419;28;20004;-92
2023/08/29 15:36:24;;;;;;;;;;;;;;;;;;4986136;28;19906;-91
2023/08/29 15:38:50;;;;;;;;;;;;;;;;;;4985353;28;20293;-91
2023/08/29 15:41:17;;;;;;;;;;;;;;;;;;4985924;28;20500;-91
2023/08/29 15:43:42;;;;;;;;;;;;;;;;;;4991398;28;20361;-90
2023/08/29 15:46:09;;;;;;;;;;;;;;;;;;4988250;28;19917;-91
2023/08/29 15:48:35;;;;;;;;;;;;;;;;;;4988557;28;20366;-90
2023/08/29 15:51:14;;;;;;;;;;;;;;;;;;4989410;28;19913;-90
2023/08/29 15:53:43;;;;;;;;;;;;;;;;;;4983293;28;19909;-90
2023/08/29 15:56:10;;;;;;;;;;;;;;;;;;4984090;28;19921;-89
2023/08/29 15:58:36;;;;;;;;;;;;;;;;;;4991131;28;19925;-89
2023/08/29 16:01:02;;;;;;;;;;;;;;;;;;4988027;28;19973;-90
2023/08/29 16:03:31;;;;;;;;;;;;;;;;;;4990281;28;19917;-90
2023/08/29 16:05:57;;;;;;;;;;;;;;;;;;4989604;28;20374;-89
2023/08/29 16:08:25;;;;;;;;;;;;;;;;;;4990654;28;19997;-90
2023/08/29 16:10:51;;;;;;;;;;;;;;;;;;4986632;28;19913;-90
2023/08/29 16:13:18;;;;;;;;;;;;;;;;;;4989108;28;19913;-90
2023/08/29 16:15:44;;;;;;;;;;;;;;;;;;4988656;28;19921;-89
2023/08/29 16:18:13;;;;;;;;;;;;;;;;;;4984529;28;19909;-89
2023/08/29 16:20:39;;;;;;;;;;;;;;;;;;4988434;28;19917;-89
2023/08/29 16:23:05;;;;;;;;;;;;;;;;;;4983297;28;19910;-91
2023/08/29 16:25:31;;;;;;;;;;;;;;;;;;4988511;28;19913;-91
2023/08/29 16:27:59;;;;;;;;;;;;;;;;;;4990694;28;20481;-90
2023/08/29 16:30:25;;;;;;;;;;;;;;;;;;4992241;28;19914;-89
2023/08/29 16:32:51;;;;;;;;;;;;;;;;;;4990085;28;19959;-88
2023/08/29 16:35:17;;;;;;;;;;;;;;;;;;4984049;28;19909;-90
2023/08/29 16:37:43;;;;;;;;;;;;;;;;;;4999573;28;19926;-90
2023/08/29 16:40:09;;;;;;;;;;;;;;;;;;4980953;28;19914;-89
2023/08/29 16:42:35;;;;;;;;;;;;;;;;;;5001053;28;19913;-89
2023/08/29 16:45:03;;;;;;;;;;;;;;;;;;4987799;28;20372;-89